sensor_id;sensor_type;location;lat;lon;timestamp;temperature;humidity
83964;DHT22;73994;50.868;5.420;2024-02-21T00:05:40;9.00;71.90
83964;DHT22;73994;50.868;5.420;2024-02-21T00:08:05;9.00;71.80
83964;DHT22;73994;50.868;5.420;2024-02-21T00:10:31;9.00;71.90
83964;DHT22;73994;50.868;5.420;2024-02-21T00:12:58;9.00;72.00
83964;DHT22;73994;50.868;5.420;2024-02-21T00:15:25;9.00;71.90
83964;DHT22;73994;50.868;5.420;2024-02-21T00:17:50;9.00;72.00
83964;DHT22;73994;50.868;5.420;2024-02-21T00:20:16;9.00;71.70
83964;DHT22;73994;50.868;5.420;2024-02-21T00:22:45;9.00;71.90
83964;DHT22;73994;50.868;5.420;2024-02-21T00:25:11;9.00;71.90
83964;DHT22;73994;50.868;5.420;2024-02-21T00:27:37;9.00;71.80
83964;DHT22;73994;50.868;5.420;2024-02-21T00:30:04;9.00;71.70
83964;DHT22;73994;50.868;5.420;2024-02-21T00:32:33;9.00;71.80
83964;DHT22;73994;50.868;5.420;2024-02-21T00:35:02;9.00;71.80
83964;DHT22;73994;50.868;5.420;2024-02-21T00:37:27;9.00;71.90
83964;DHT22;73994;50.868;5.420;2024-02-21T00:39:54;9.00;71.80
83964;DHT22;73994;50.868;5.420;2024-02-21T00:42:20;9.00;71.80
83964;DHT22;73994;50.868;5.420;2024-02-21T00:44:46;9.00;71.70
83964;DHT22;73994;50.868;5.420;2024-02-21T00:47:12;9.10;71.70
83964;DHT22;73994;50.868;5.420;2024-02-21T00:49:37;9.10;71.70
83964;DHT22;73994;50.868;5.420;2024-02-21T00:52:03;9.10;71.80
83964;DHT22;73994;50.868;5.420;2024-02-21T00:54:29;9.10;71.80
83964;DHT22;73994;50.868;5.420;2024-02-21T00:56:54;9.00;71.80
83964;DHT22;73994;50.868;5.420;2024-02-21T00:59:20;9.00;71.70
83964;DHT22;73994;50.868;5.420;2024-02-21T01:01:46;9.00;71.60
83964;DHT22;73994;50.868;5.420;2024-02-21T01:04:12;9.00;71.80
83964;DHT22;73994;50.868;5.420;2024-02-21T01:06:37;9.00;71.80
83964;DHT22;73994;50.868;5.420;2024-02-21T01:09:03;9.00;71.80
83964;DHT22;73994;50.868;5.420;2024-02-21T01:11:29;9.00;71.80
83964;DHT22;73994;50.868;5.420;2024-02-21T01:13:55;9.00;71.90
83964;DHT22;73994;50.868;5.420;2024-02-21T01:16:21;9.00;71.80
83964;DHT22;73994;50.868;5.420;2024-02-21T01:18:46;9.00;72.00
83964;DHT22;73994;50.868;5.420;2024-02-21T01:21:12;9.00;72.00
83964;DHT22;73994;50.868;5.420;2024-02-21T01:23:38;9.00;71.90
83964;DHT22;73994;50.868;5.420;2024-02-21T01:26:04;9.00;72.00
83964;DHT22;73994;50.868;5.420;2024-02-21T01:28:30;9.00;71.80
83964;DHT22;73994;50.868;5.420;2024-02-21T01:30:56;9.00;71.90
83964;DHT22;73994;50.868;5.420;2024-02-21T01:33:22;9.00;71.80
83964;DHT22;73994;50.868;5.420;2024-02-21T01:35:48;9.00;72.10
83964;DHT22;73994;50.868;5.420;2024-02-21T01:38:14;9.00;72.20
83964;DHT22;73994;50.868;5.420;2024-02-21T01:40:40;9.00;72.30
83964;DHT22;73994;50.868;5.420;2024-02-21T01:43:16;9.00;72.20
83964;DHT22;73994;50.868;5.420;2024-02-21T01:45:43;9.00;72.20
83964;DHT22;73994;50.868;5.420;2024-02-21T01:48:11;8.90;72.30
83964;DHT22;73994;50.868;5.420;2024-02-21T01:50:36;8.90;72.40
83964;DHT22;73994;50.868;5.420;2024-02-21T01:53:02;8.90;72.40
83964;DHT22;73994;50.868;5.420;2024-02-21T01:55:28;8.90;72.30
83964;DHT22;73994;50.868;5.420;2024-02-21T01:57:54;8.90;72.30
83964;DHT22;73994;50.868;5.420;2024-02-21T02:00:20;8.90;72.20
83964;DHT22;73994;50.868;5.420;2024-02-21T02:02:46;8.90;72.40
83964;DHT22;73994;50.868;5.420;2024-02-21T02:05:11;8.80;72.50
83964;DHT22;73994;50.868;5.420;2024-02-21T02:07:37;8.80;72.60
83964;DHT22;73994;50.868;5.420;2024-02-21T02:10:03;8.80;72.60
83964;DHT22;73994;50.868;5.420;2024-02-21T02:12:29;8.80;72.50
83964;DHT22;73994;50.868;5.420;2024-02-21T02:15:02;8.80;72.50
83964;DHT22;73994;50.868;5.420;2024-02-21T02:17:31;8.80;72.60
83964;DHT22;73994;50.868;5.420;2024-02-21T02:19:57;8.70;72.60
83964;DHT22;73994;50.868;5.420;2024-02-21T02:22:28;8.60;72.80
83964;DHT22;73994;50.868;5.420;2024-02-21T02:24:54;8.60;72.80
83964;DHT22;73994;50.868;5.420;2024-02-21T02:27:20;8.60;72.80
83964;DHT22;73994;50.868;5.420;2024-02-21T02:29:45;8.70;72.70
83964;DHT22;73994;50.868;5.420;2024-02-21T02:32:11;8.60;72.70
83964;DHT22;73994;50.868;5.420;2024-02-21T02:34:37;8.60;72.70
83964;DHT22;73994;50.868;5.420;2024-02-21T02:37:03;8.70;72.60
83964;DHT22;73994;50.868;5.420;2024-02-21T02:39:28;8.60;72.70
83964;DHT22;73994;50.868;5.420;2024-02-21T02:41:54;8.60;72.70
83964;DHT22;73994;50.868;5.420;2024-02-21T02:44:20;8.60;72.80
83964;DHT22;73994;50.868;5.420;2024-02-21T02:46:45;8.60;72.60
83964;DHT22;73994;50.868;5.420;2024-02-21T02:49:11;8.60;72.60
83964;DHT22;73994;50.868;5.420;2024-02-21T02:51:40;8.60;72.50
83964;DHT22;73994;50.868;5.420;2024-02-21T02:54:06;8.70;72.70
83964;DHT22;73994;50.868;5.420;2024-02-21T02:56:32;8.60;72.50
83964;DHT22;73994;50.868;5.420;2024-02-21T02:58:57;8.60;72.50
83964;DHT22;73994;50.868;5.420;2024-02-21T03:01:23;8.60;72.60
83964;DHT22;73994;50.868;5.420;2024-02-21T03:03:48;8.60;72.40
83964;DHT22;73994;50.868;5.420;2024-02-21T03:06:14;8.60;72.40
83964;DHT22;73994;50.868;5.420;2024-02-21T03:08:40;8.60;72.40
83964;DHT22;73994;50.868;5.420;2024-02-21T03:11:05;8.60;72.50
83964;DHT22;73994;50.868;5.420;2024-02-21T03:13:31;8.60;72.50
83964;DHT22;73994;50.868;5.420;2024-02-21T03:15:57;8.60;72.70
83964;DHT22;73994;50.868;5.420;2024-02-21T03:18:22;8.60;72.70
83964;DHT22;73994;50.868;5.420;2024-02-21T03:20:48;8.60;72.60
83964;DHT22;73994;50.868;5.420;2024-02-21T03:23:14;8.60;72.60
83964;DHT22;73994;50.868;5.420;2024-02-21T03:25:40;8.60;72.50
83964;DHT22;73994;50.868;5.420;2024-02-21T03:28:06;8.60;72.60
83964;DHT22;73994;50.868;5.420;2024-02-21T03:30:32;8.60;72.50
83964;DHT22;73994;50.868;5.420;2024-02-21T03:32:59;8.60;72.50
83964;DHT22;73994;50.868;5.420;2024-02-21T03:35:25;8.60;72.30
83964;DHT22;73994;50.868;5.420;2024-02-21T03:37:53;8.70;72.20
83964;DHT22;73994;50.868;5.420;2024-02-21T03:40:19;8.60;72.20
83964;DHT22;73994;50.868;5.420;2024-02-21T03:42:44;8.60;72.30
83964;DHT22;73994;50.868;5.420;2024-02-21T03:45:10;8.60;72.20
83964;DHT22;73994;50.868;5.420;2024-02-21T03:47:36;8.60;72.30
83964;DHT22;73994;50.868;5.420;2024-02-21T03:50:01;8.60;72.40
83964;DHT22;73994;50.868;5.420;2024-02-21T03:52:27;8.60;72.30
83964;DHT22;73994;50.868;5.420;2024-02-21T03:54:53;8.60;72.50
83964;DHT22;73994;50.868;5.420;2024-02-21T03:57:20;8.60;72.50
83964;DHT22;73994;50.868;5.420;2024-02-21T03:59:46;8.60;72.30
83964;DHT22;73994;50.868;5.420;2024-02-21T04:02:15;8.60;72.40
83964;DHT22;73994;50.868;5.420;2024-02-21T04:04:43;8.60;72.30
83964;DHT22;73994;50.868;5.420;2024-02-21T04:07:12;8.60;72.20
83964;DHT22;73994;50.868;5.420;2024-02-21T04:09:37;8.60;72.20
83964;DHT22;73994;50.868;5.420;2024-02-21T04:12:03;8.60;72.30
83964;DHT22;73994;50.868;5.420;2024-02-21T04:14:29;8.60;72.10
83964;DHT22;73994;50.868;5.420;2024-02-21T04:16:54;8.60;72.20
83964;DHT22;73994;50.868;5.420;2024-02-21T04:19:20;8.60;72.20
83964;DHT22;73994;50.868;5.420;2024-02-21T04:21:46;8.60;72.20
83964;DHT22;73994;50.868;5.420;2024-02-21T04:24:11;8.60;72.20
83964;DHT22;73994;50.868;5.420;2024-02-21T04:26:37;8.60;72.40
83964;DHT22;73994;50.868;5.420;2024-02-21T04:29:02;8.60;72.30
83964;DHT22;73994;50.868;5.420;2024-02-21T04:31:28;8.60;72.30
83964;DHT22;73994;50.868;5.420;2024-02-21T04:33:54;8.60;72.30
83964;DHT22;73994;50.868;5.420;2024-02-21T04:36:19;8.60;72.20
83964;DHT22;73994;50.868;5.420;2024-02-21T04:38:45;8.60;72.20
83964;DHT22;73994;50.868;5.420;2024-02-21T04:41:11;8.60;72.20
83964;DHT22;73994;50.868;5.420;2024-02-21T04:43:36;8.60;72.30
83964;DHT22;73994;50.868;5.420;2024-02-21T04:46:02;8.60;72.50
83964;DHT22;73994;50.868;5.420;2024-02-21T04:48:28;8.60;72.30
83964;DHT22;73994;50.868;5.420;2024-02-21T04:50:53;8.50;72.40
83964;DHT22;73994;50.868;5.420;2024-02-21T04:53:19;8.60;72.40
83964;DHT22;73994;50.868;5.420;2024-02-21T04:55:44;8.60;72.30
83964;DHT22;73994;50.868;5.420;2024-02-21T04:58:10;8.60;72.30
83964;DHT22;73994;50.868;5.420;2024-02-21T05:00:36;8.50;72.60
83964;DHT22;73994;50.868;5.420;2024-02-21T05:03:01;8.50;72.50
83964;DHT22;73994;50.868;5.420;2024-02-21T05:05:27;8.50;72.50
83964;DHT22;73994;50.868;5.420;2024-02-21T05:07:53;8.50;72.50
83964;DHT22;73994;50.868;5.420;2024-02-21T05:10:18;8.50;72.60
83964;DHT22;73994;50.868;5.420;2024-02-21T05:12:46;8.50;72.60
83964;DHT22;73994;50.868;5.420;2024-02-21T05:15:11;8.50;72.60
83964;DHT22;73994;50.868;5.420;2024-02-21T05:17:37;8.50;72.70
83964;DHT22;73994;50.868;5.420;2024-02-21T05:20:03;8.50;72.80
83964;DHT22;73994;50.868;5.420;2024-02-21T05:22:29;8.50;72.90
83964;DHT22;73994;50.868;5.420;2024-02-21T05:24:54;8.50;72.90
83964;DHT22;73994;50.868;5.420;2024-02-21T05:27:20;8.50;73.10
83964;DHT22;73994;50.868;5.420;2024-02-21T05:29:46;8.50;72.90
83964;DHT22;73994;50.868;5.420;2024-02-21T05:32:13;8.50;73.00
83964;DHT22;73994;50.868;5.420;2024-02-21T05:34:39;8.50;72.90
83964;DHT22;73994;50.868;5.420;2024-02-21T05:37:05;8.50;72.80
83964;DHT22;73994;50.868;5.420;2024-02-21T05:39:31;8.50;73.00
83964;DHT22;73994;50.868;5.420;2024-02-21T05:41:56;8.40;73.20
83964;DHT22;73994;50.868;5.420;2024-02-21T05:44:22;8.40;73.60
83964;DHT22;73994;50.868;5.420;2024-02-21T05:46:48;8.40;73.90
83964;DHT22;73994;50.868;5.420;2024-02-21T05:49:13;8.40;74.20
83964;DHT22;73994;50.868;5.420;2024-02-21T05:51:39;8.40;74.60
83964;DHT22;73994;50.868;5.420;2024-02-21T05:54:05;8.40;74.60
83964;DHT22;73994;50.868;5.420;2024-02-21T05:56:33;8.40;74.30
83964;DHT22;73994;50.868;5.420;2024-02-21T05:58:58;8.40;74.40
83964;DHT22;73994;50.868;5.420;2024-02-21T06:01:24;8.40;74.40
83964;DHT22;73994;50.868;5.420;2024-02-21T06:03:50;8.40;74.30
83964;DHT22;73994;50.868;5.420;2024-02-21T06:06:16;8.40;74.10
83964;DHT22;73994;50.868;5.420;2024-02-21T06:08:41;8.40;74.10
83964;DHT22;73994;50.868;5.420;2024-02-21T06:11:07;8.40;73.90
83964;DHT22;73994;50.868;5.420;2024-02-21T06:13:33;8.40;73.80
83964;DHT22;73994;50.868;5.420;2024-02-21T06:15:58;8.40;73.60
83964;DHT22;73994;50.868;5.420;2024-02-21T06:18:24;8.40;73.40
83964;DHT22;73994;50.868;5.420;2024-02-21T06:20:50;8.40;73.00
83964;DHT22;73994;50.868;5.420;2024-02-21T06:23:16;8.40;72.80
83964;DHT22;73994;50.868;5.420;2024-02-21T06:25:42;8.40;73.10
83964;DHT22;73994;50.868;5.420;2024-02-21T06:28:08;8.40;73.30
83964;DHT22;73994;50.868;5.420;2024-02-21T06:30:34;8.30;73.40
83964;DHT22;73994;50.868;5.420;2024-02-21T06:32:59;8.30;73.20
83964;DHT22;73994;50.868;5.420;2024-02-21T06:35:26;8.30;73.20
83964;DHT22;73994;50.868;5.420;2024-02-21T06:37:52;8.40;73.00
83964;DHT22;73994;50.868;5.420;2024-02-21T06:40:20;8.30;73.20
83964;DHT22;73994;50.868;5.420;2024-02-21T06:42:46;8.40;73.20
83964;DHT22;73994;50.868;5.420;2024-02-21T06:45:11;8.30;73.20
83964;DHT22;73994;50.868;5.420;2024-02-21T06:47:37;8.30;73.70
83964;DHT22;73994;50.868;5.420;2024-02-21T06:50:03;8.20;74.00
83964;DHT22;73994;50.868;5.420;2024-02-21T06:52:29;8.20;74.20
83964;DHT22;73994;50.868;5.420;2024-02-21T06:54:57;8.20;74.40
83964;DHT22;73994;50.868;5.420;2024-02-21T06:57:23;8.20;75.50
83964;DHT22;73994;50.868;5.420;2024-02-21T06:59:49;8.10;75.90
83964;DHT22;73994;50.868;5.420;2024-02-21T07:02:15;8.10;74.70
83964;DHT22;73994;50.868;5.420;2024-02-21T07:04:40;8.10;74.40
83964;DHT22;73994;50.868;5.420;2024-02-21T07:07:06;8.10;75.10
83964;DHT22;73994;50.868;5.420;2024-02-21T07:09:33;8.00;74.90
83964;DHT22;73994;50.868;5.420;2024-02-21T07:11:59;8.10;75.00
83964;DHT22;73994;50.868;5.420;2024-02-21T07:14:25;8.10;74.70
83964;DHT22;73994;50.868;5.420;2024-02-21T07:16:51;8.10;74.60
83964;DHT22;73994;50.868;5.420;2024-02-21T07:19:17;8.10;74.60
83964;DHT22;73994;50.868;5.420;2024-02-21T07:21:42;8.00;74.70
83964;DHT22;73994;50.868;5.420;2024-02-21T07:24:08;8.00;74.60
83964;DHT22;73994;50.868;5.420;2024-02-21T07:26:34;8.10;75.10
83964;DHT22;73994;50.868;5.420;2024-02-21T07:29:00;8.10;74.50
83964;DHT22;73994;50.868;5.420;2024-02-21T07:31:26;8.20;74.00
83964;DHT22;73994;50.868;5.420;2024-02-21T07:33:51;8.20;74.00
83964;DHT22;73994;50.868;5.420;2024-02-21T07:36:28;8.30;73.60
83964;DHT22;73994;50.868;5.420;2024-02-21T07:38:54;8.30;73.20
83964;DHT22;73994;50.868;5.420;2024-02-21T07:41:20;8.40;73.20
83964;DHT22;73994;50.868;5.420;2024-02-21T07:43:46;8.40;72.80
83964;DHT22;73994;50.868;5.420;2024-02-21T07:46:14;8.40;73.20
83964;DHT22;73994;50.868;5.420;2024-02-21T07:48:39;8.40;73.00
83964;DHT22;73994;50.868;5.420;2024-02-21T07:51:05;8.40;73.00
83964;DHT22;73994;50.868;5.420;2024-02-21T07:53:30;8.40;72.90
83964;DHT22;73994;50.868;5.420;2024-02-21T07:55:56;8.40;72.90
83964;DHT22;73994;50.868;5.420;2024-02-21T07:58:22;8.40;72.70
83964;DHT22;73994;50.868;5.420;2024-02-21T08:00:47;8.50;72.20
83964;DHT22;73994;50.868;5.420;2024-02-21T08:03:14;8.50;72.20
83964;DHT22;73994;50.868;5.420;2024-02-21T08:05:40;8.50;71.80
83964;DHT22;73994;50.868;5.420;2024-02-21T08:08:06;8.50;71.80
83964;DHT22;73994;50.868;5.420;2024-02-21T08:10:33;8.60;71.30
83964;DHT22;73994;50.868;5.420;2024-02-21T08:12:59;8.60;71.20
83964;DHT22;73994;50.868;5.420;2024-02-21T08:15:25;8.60;71.10
83964;DHT22;73994;50.868;5.420;2024-02-21T08:17:57;8.60;70.90
83964;DHT22;73994;50.868;5.420;2024-02-21T08:20:26;8.60;70.80
83964;DHT22;73994;50.868;5.420;2024-02-21T08:22:52;8.70;70.40
83964;DHT22;73994;50.868;5.420;2024-02-21T08:25:18;8.80;70.10
83964;DHT22;73994;50.868;5.420;2024-02-21T08:27:43;8.80;70.00
83964;DHT22;73994;50.868;5.420;2024-02-21T08:30:11;8.80;69.70
83964;DHT22;73994;50.868;5.420;2024-02-21T08:32:37;8.80;69.40
83964;DHT22;73994;50.868;5.420;2024-02-21T08:35:03;8.90;69.40
83964;DHT22;73994;50.868;5.420;2024-02-21T08:37:29;9.00;69.10
83964;DHT22;73994;50.868;5.420;2024-02-21T08:39:54;9.00;68.70
83964;DHT22;73994;50.868;5.420;2024-02-21T08:42:20;9.00;68.50
83964;DHT22;73994;50.868;5.420;2024-02-21T08:44:46;9.00;68.70
83964;DHT22;73994;50.868;5.420;2024-02-21T08:47:12;9.10;68.40
83964;DHT22;73994;50.868;5.420;2024-02-21T08:49:38;9.20;68.30
83964;DHT22;73994;50.868;5.420;2024-02-21T08:52:04;9.20;68.50
83964;DHT22;73994;50.868;5.420;2024-02-21T08:54:30;9.30;68.00
83964;DHT22;73994;50.868;5.420;2024-02-21T08:56:56;9.40;67.70
83964;DHT22;73994;50.868;5.420;2024-02-21T08:59:22;9.30;67.70
83964;DHT22;73994;50.868;5.420;2024-02-21T09:01:48;9.20;67.70
83964;DHT22;73994;50.868;5.420;2024-02-21T09:04:13;9.20;67.90
83964;DHT22;73994;50.868;5.420;2024-02-21T09:06:39;9.30;67.60
83964;DHT22;73994;50.868;5.420;2024-02-21T09:09:08;9.20;68.00
83964;DHT22;73994;50.868;5.420;2024-02-21T09:11:35;9.30;67.60
83964;DHT22;73994;50.868;5.420;2024-02-21T09:14:01;9.40;67.70
83964;DHT22;73994;50.868;5.420;2024-02-21T09:16:26;9.40;67.70
83964;DHT22;73994;50.868;5.420;2024-02-21T09:18:52;9.40;67.50
83964;DHT22;73994;50.868;5.420;2024-02-21T09:21:18;9.50;67.40
83964;DHT22;73994;50.868;5.420;2024-02-21T09:23:44;9.50;67.30
83964;DHT22;73994;50.868;5.420;2024-02-21T09:26:10;9.60;67.10
83964;DHT22;73994;50.868;5.420;2024-02-21T09:28:39;9.50;67.00
83964;DHT22;73994;50.868;5.420;2024-02-21T09:31:05;9.60;67.20
83964;DHT22;73994;50.868;5.420;2024-02-21T09:33:30;9.70;67.00
83964;DHT22;73994;50.868;5.420;2024-02-21T09:35:56;9.70;66.50
83964;DHT22;73994;50.868;5.420;2024-02-21T09:38:22;9.70;66.40
83964;DHT22;73994;50.868;5.420;2024-02-21T09:40:59;9.80;66.50
83964;DHT22;73994;50.868;5.420;2024-02-21T09:43:26;10.00;66.50
83964;DHT22;73994;50.868;5.420;2024-02-21T09:45:54;10.00;65.90
83964;DHT22;73994;50.868;5.420;2024-02-21T09:49:04;10.00;65.90
83964;DHT22;73994;50.868;5.420;2024-02-21T09:51:33;10.00;66.10
83964;DHT22;73994;50.868;5.420;2024-02-21T09:54:00;10.00;66.00
83964;DHT22;73994;50.868;5.420;2024-02-21T09:56:28;10.00;66.20
83964;DHT22;73994;50.868;5.420;2024-02-21T09:58:54;10.20;65.50
83964;DHT22;73994;50.868;5.420;2024-02-21T10:01:20;10.30;65.50
83964;DHT22;73994;50.868;5.420;2024-02-21T10:03:46;10.30;65.30
83964;DHT22;73994;50.868;5.420;2024-02-21T10:06:11;10.50;65.20
83964;DHT22;73994;50.868;5.420;2024-02-21T10:08:37;10.60;64.80
83964;DHT22;73994;50.868;5.420;2024-02-21T10:11:03;10.70;64.60
83964;DHT22;73994;50.868;5.420;2024-02-21T10:13:29;10.60;64.50
83964;DHT22;73994;50.868;5.420;2024-02-21T10:18:27;10.70;64.70
83964;DHT22;73994;50.868;5.420;2024-02-21T10:21:06;10.90;64.40
83964;DHT22;73994;50.868;5.420;2024-02-21T10:23:45;11.10;64.00
83964;DHT22;73994;50.868;5.420;2024-02-21T10:26:12;11.30;63.70
83964;DHT22;73994;50.868;5.420;2024-02-21T10:28:38;11.40;63.60
83964;DHT22;73994;50.868;5.420;2024-02-21T10:31:11;11.30;63.40
83964;DHT22;73994;50.868;5.420;2024-02-21T10:33:56;11.10;63.80
83964;DHT22;73994;50.868;5.420;2024-02-21T10:36:23;11.00;64.50
83964;DHT22;73994;50.868;5.420;2024-02-21T10:38:52;10.90;64.30
83964;DHT22;73994;50.868;5.420;2024-02-21T10:41:20;11.10;64.40
83964;DHT22;73994;50.868;5.420;2024-02-21T10:43:50;11.30;64.30
83964;DHT22;73994;50.868;5.420;2024-02-21T10:46:22;11.30;63.70
83964;DHT22;73994;50.868;5.420;2024-02-21T10:49:01;11.30;64.20
83964;DHT22;73994;50.868;5.420;2024-02-21T10:51:32;11.50;63.60
83964;DHT22;73994;50.868;5.420;2024-02-21T10:57:02;11.50;63.30
83964;DHT22;73994;50.868;5.420;2024-02-21T10:59:29;11.70;63.30
83964;DHT22;73994;50.868;5.420;2024-02-21T11:01:57;11.70;62.60
83964;DHT22;73994;50.868;5.420;2024-02-21T11:04:23;11.80;62.70
83964;DHT22;73994;50.868;5.420;2024-02-21T11:06:50;11.90;62.40
83964;DHT22;73994;50.868;5.420;2024-02-21T11:09:16;11.90;62.30
83964;DHT22;73994;50.868;5.420;2024-02-21T11:11:43;11.90;62.30
83964;DHT22;73994;50.868;5.420;2024-02-21T11:14:11;11.90;62.20
83964;DHT22;73994;50.868;5.420;2024-02-21T11:16:43;11.80;62.30
83964;DHT22;73994;50.868;5.420;2024-02-21T11:19:22;12.00;62.30
83964;DHT22;73994;50.868;5.420;2024-02-21T11:21:51;12.00;61.70
83964;DHT22;73994;50.868;5.420;2024-02-21T11:26:53;11.90;61.80
83964;DHT22;73994;50.868;5.420;2024-02-21T11:29:25;11.70;62.20
83964;DHT22;73994;50.868;5.420;2024-02-21T11:31:51;11.90;61.80
83964;DHT22;73994;50.868;5.420;2024-02-21T11:34:18;12.00;61.80
83964;DHT22;73994;50.868;5.420;2024-02-21T11:36:52;11.90;61.70
83964;DHT22;73994;50.868;5.420;2024-02-21T11:39:35;11.90;62.00
83964;DHT22;73994;50.868;5.420;2024-02-21T11:42:02;11.90;61.70
83964;DHT22;73994;50.868;5.420;2024-02-21T11:44:29;12.10;61.20
83964;DHT22;73994;50.868;5.420;2024-02-21T11:46:55;12.10;60.90
83964;DHT22;73994;50.868;5.420;2024-02-21T11:49:21;12.20;60.90
83964;DHT22;73994;50.868;5.420;2024-02-21T11:51:46;12.50;60.70
83964;DHT22;73994;50.868;5.420;2024-02-21T11:54:12;12.70;59.80
83964;DHT22;73994;50.868;5.420;2024-02-21T11:56:41;12.90;59.50
83964;DHT22;73994;50.868;5.420;2024-02-21T11:59:08;13.30;58.60
83964;DHT22;73994;50.868;5.420;2024-02-21T12:01:34;13.60;57.50
83964;DHT22;73994;50.868;5.420;2024-02-21T12:04:00;13.90;57.70
83964;DHT22;73994;50.868;5.420;2024-02-21T12:06:25;14.00;56.90
83964;DHT22;73994;50.868;5.420;2024-02-21T12:08:51;14.10;57.10
83964;DHT22;73994;50.868;5.420;2024-02-21T12:11:22;14.50;56.20
83964;DHT22;73994;50.868;5.420;2024-02-21T12:13:58;14.50;56.30
83964;DHT22;73994;50.868;5.420;2024-02-21T12:16:27;15.10;55.10
83964;DHT22;73994;50.868;5.420;2024-02-21T12:18:53;15.00;54.70
83964;DHT22;73994;50.868;5.420;2024-02-21T12:21:19;14.40;55.60
83964;DHT22;73994;50.868;5.420;2024-02-21T12:23:44;13.80;56.60
83964;DHT22;73994;50.868;5.420;2024-02-21T12:26:12;13.10;58.40
83964;DHT22;73994;50.868;5.420;2024-02-21T12:28:38;12.90;59.10
83964;DHT22;73994;50.868;5.420;2024-02-21T12:31:03;12.60;59.50
83964;DHT22;73994;50.868;5.420;2024-02-21T12:33:30;12.50;59.80
83964;DHT22;73994;50.868;5.420;2024-02-21T12:35:55;12.30;60.40
83964;DHT22;73994;50.868;5.420;2024-02-21T12:38:21;12.20;60.40
83964;DHT22;73994;50.868;5.420;2024-02-21T12:40:47;12.00;61.20
83964;DHT22;73994;50.868;5.420;2024-02-21T12:43:13;11.90;61.40
83964;DHT22;73994;50.868;5.420;2024-02-21T12:45:38;11.80;61.50
83964;DHT22;73994;50.868;5.420;2024-02-21T12:48:04;11.70;61.60
83964;DHT22;73994;50.868;5.420;2024-02-21T12:50:30;11.90;61.70
83964;DHT22;73994;50.868;5.420;2024-02-21T12:52:57;11.70;61.90
83964;DHT22;73994;50.868;5.420;2024-02-21T12:55:24;11.70;62.00
83964;DHT22;73994;50.868;5.420;2024-02-21T12:57:49;11.70;62.20
83964;DHT22;73994;50.868;5.420;2024-02-21T13:00:15;11.70;62.00
83964;DHT22;73994;50.868;5.420;2024-02-21T13:02:41;11.70;62.20
83964;DHT22;73994;50.868;5.420;2024-02-21T13:05:08;11.70;62.30
83964;DHT22;73994;50.868;5.420;2024-02-21T13:07:34;11.70;62.50
83964;DHT22;73994;50.868;5.420;2024-02-21T13:09:59;11.70;62.00
83964;DHT22;73994;50.868;5.420;2024-02-21T13:12:25;11.70;62.20
83964;DHT22;73994;50.868;5.420;2024-02-21T13:14:55;11.70;62.40
83964;DHT22;73994;50.868;5.420;2024-02-21T13:17:21;11.80;62.20
83964;DHT22;73994;50.868;5.420;2024-02-21T13:19:47;11.80;62.20
83964;DHT22;73994;50.868;5.420;2024-02-21T13:22:13;11.90;61.90
83964;DHT22;73994;50.868;5.420;2024-02-21T13:24:39;11.90;61.90
83964;DHT22;73994;50.868;5.420;2024-02-21T13:27:04;11.90;62.10
83964;DHT22;73994;50.868;5.420;2024-02-21T13:29:30;11.90;61.90
83964;DHT22;73994;50.868;5.420;2024-02-21T13:31:56;11.80;61.20
83964;DHT22;73994;50.868;5.420;2024-02-21T13:34:22;11.90;61.20
83964;DHT22;73994;50.868;5.420;2024-02-21T13:36:47;11.80;61.00
83964;DHT22;73994;50.868;5.420;2024-02-21T13:39:13;11.80;61.00
83964;DHT22;73994;50.868;5.420;2024-02-21T13:41:42;11.90;61.90
83964;DHT22;73994;50.868;5.420;2024-02-21T13:44:08;12.00;61.90
83964;DHT22;73994;50.868;5.420;2024-02-21T13:46:34;12.00;61.60
83964;DHT22;73994;50.868;5.420;2024-02-21T13:49:05;11.90;61.90
83964;DHT22;73994;50.868;5.420;2024-02-21T13:51:34;11.90;61.90
83964;DHT22;73994;50.868;5.420;2024-02-21T13:54:04;11.80;62.20
83964;DHT22;73994;50.868;5.420;2024-02-21T13:56:30;11.70;61.40
83964;DHT22;73994;50.868;5.420;2024-02-21T13:58:58;11.70;61.90
83964;DHT22;73994;50.868;5.420;2024-02-21T14:01:25;11.70;62.10
83964;DHT22;73994;50.868;5.420;2024-02-21T14:03:51;11.70;61.90
83964;DHT22;73994;50.868;5.420;2024-02-21T14:06:16;11.60;61.90
83964;DHT22;73994;50.868;5.420;2024-02-21T14:08:42;11.50;62.20
83964;DHT22;73994;50.868;5.420;2024-02-21T14:11:08;11.50;62.70
83964;DHT22;73994;50.868;5.420;2024-02-21T14:13:34;11.50;62.20
83964;DHT22;73994;50.868;5.420;2024-02-21T14:16:00;11.50;62.30
83964;DHT22;73994;50.868;5.420;2024-02-21T14:18:25;11.40;62.20
83964;DHT22;73994;50.868;5.420;2024-02-21T14:20:51;11.40;62.50
83964;DHT22;73994;50.868;5.420;2024-02-21T14:23:17;11.40;62.30
83964;DHT22;73994;50.868;5.420;2024-02-21T14:25:43;11.30;62.70
83964;DHT22;73994;50.868;5.420;2024-02-21T14:28:09;11.30;62.90
83964;DHT22;73994;50.868;5.420;2024-02-21T14:30:35;11.10;62.70
83964;DHT22;73994;50.868;5.420;2024-02-21T14:33:00;11.10;62.90
83964;DHT22;73994;50.868;5.420;2024-02-21T14:35:26;11.00;62.60
83964;DHT22;73994;50.868;5.420;2024-02-21T14:37:52;10.90;62.60
83964;DHT22;73994;50.868;5.420;2024-02-21T14:40:18;10.90;62.80
83964;DHT22;73994;50.868;5.420;2024-02-21T14:42:47;10.90;63.40
83964;DHT22;73994;50.868;5.420;2024-02-21T14:45:12;10.90;63.20
83964;DHT22;73994;50.868;5.420;2024-02-21T14:47:39;10.80;63.20
83964;DHT22;73994;50.868;5.420;2024-02-21T14:50:05;10.70;63.50
83964;DHT22;73994;50.868;5.420;2024-02-21T14:52:32;10.70;63.60
83964;DHT22;73994;50.868;5.420;2024-02-21T14:54:58;10.60;63.80
83964;DHT22;73994;50.868;5.420;2024-02-21T14:57:25;10.60;64.80
83964;DHT22;73994;50.868;5.420;2024-02-21T14:59:51;10.30;66.80
83964;DHT22;73994;50.868;5.420;2024-02-21T15:02:22;10.20;68.20
83964;DHT22;73994;50.868;5.420;2024-02-21T15:04:48;10.00;80.30
83964;DHT22;73994;50.868;5.420;2024-02-21T15:07:14;9.70;78.90
83964;DHT22;73994;50.868;5.420;2024-02-21T15:09:39;9.50;82.00
83964;DHT22;73994;50.868;5.420;2024-02-21T15:12:05;9.50;80.10
83964;DHT22;73994;50.868;5.420;2024-02-21T15:14:31;9.50;77.60
83964;DHT22;73994;50.868;5.420;2024-02-21T15:16:57;9.40;74.80
83964;DHT22;73994;50.868;5.420;2024-02-21T15:19:23;9.40;75.90
83964;DHT22;73994;50.868;5.420;2024-02-21T15:21:49;9.40;76.90
83964;DHT22;73994;50.868;5.420;2024-02-21T15:24:15;9.40;77.70
83964;DHT22;73994;50.868;5.420;2024-02-21T15:26:42;9.30;77.60
83964;DHT22;73994;50.868;5.420;2024-02-21T15:29:08;9.20;79.30
83964;DHT22;73994;50.868;5.420;2024-02-21T15:31:34;9.20;80.00
83964;DHT22;73994;50.868;5.420;2024-02-21T15:34:00;9.00;79.30
83964;DHT22;73994;50.868;5.420;2024-02-21T15:36:26;9.00;79.40
83964;DHT22;73994;50.868;5.420;2024-02-21T15:38:53;9.00;78.80
83964;DHT22;73994;50.868;5.420;2024-02-21T15:41:20;9.00;79.90
83964;DHT22;73994;50.868;5.420;2024-02-21T15:43:46;8.90;79.80
83964;DHT22;73994;50.868;5.420;2024-02-21T15:46:12;8.90;78.60
83964;DHT22;73994;50.868;5.420;2024-02-21T15:48:38;8.90;79.80